createdAt,value
2023-05-08T00:00:58.762Z,99989.78
2023-05-08T00:03:29.071Z,99994.81
2023-05-08T00:05:57.897Z,99994.41
2023-05-08T00:08:26.832Z,99997.81
2023-05-08T00:10:55.411Z,99992.87
2023-05-08T00:13:24.187Z,99993.06
2023-05-08T00:15:54.344Z,99997.25
2023-05-08T00:18:23.004Z,99990.06
2023-05-08T00:20:52.940Z,99998.09
2023-05-08T00:23:22.354Z,100000.59
2023-05-08T00:25:51.044Z,99991.94
2023-05-08T00:28:19.609Z,99992.34
2023-05-08T00:30:48.607Z,99993.03
2023-05-08T00:33:17.655Z,99997.97
2023-05-08T00:35:46.527Z,99992.38
2023-05-08T00:38:17.134Z,99997.69
2023-05-08T00:40:46.124Z,100005.16
2023-05-08T00:43:15.040Z,100004.16
2023-05-08T00:45:44.022Z,100006.81
2023-05-08T00:48:12.673Z,100003.44
2023-05-08T00:50:42.442Z,100009.94
2023-05-08T00:53:13.124Z,100007.34
2023-05-08T00:55:43.440Z,100011.81
2023-05-08T00:58:12.970Z,100006.63
2023-05-08T01:00:43.217Z,100007.09
2023-05-08T01:03:13.257Z,100008.47
2023-05-08T01:05:42.343Z,100012.75
2023-05-08T01:08:11.172Z,100013.94
2023-05-08T01:10:48.170Z,100014.75
2023-05-08T01:13:28.768Z,100020.75
2023-05-08T01:16:03.393Z,100016.19
2023-05-08T01:18:38.108Z,100022.63
2023-05-08T01:21:14.426Z,100025.47
2023-05-08T01:23:58.173Z,100025.31
2023-05-08T01:27:18.106Z,100031.44
2023-05-08T01:30:18.041Z,100030.37
2023-05-08T01:32:52.468Z,100045.44
2023-05-08T01:35:25.476Z,100044.69
2023-05-08T01:37:59.694Z,100044.88
2023-05-08T01:40:34.685Z,100044.03
2023-05-08T01:43:14.152Z,100046.72
2023-05-08T01:45:46.969Z,100054.88
2023-05-08T01:48:20.557Z,100045.34
2023-05-08T01:50:50.895Z,100056.53
2023-05-08T01:53:27.175Z,100051.19
2023-05-08T01:56:01.589Z,100052.28
2023-05-08T01:58:32.077Z,100062.72
2023-05-08T02:01:03.279Z,100054.91
2023-05-08T02:03:35.857Z,100054.78
2023-05-08T02:06:04.902Z,100052.81
2023-05-08T02:08:35.066Z,100053.03
2023-05-08T02:11:08.073Z,100063.50
2023-05-08T02:13:37.565Z,100060.91
2023-05-08T02:16:08.483Z,100072.91
2023-05-08T02:18:40.140Z,100066.03
2023-05-08T02:21:10.412Z,100068.03
2023-05-08T02:23:39.660Z,100068.22
2023-05-08T02:26:08.844Z,100071.63
2023-05-08T02:28:38.020Z,100076.62
2023-05-08T02:31:07.186Z,100071.66
2023-05-08T02:33:36.100Z,100070.56
2023-05-08T02:36:07.502Z,100063.91
2023-05-08T02:38:36.599Z,100069.38
2023-05-08T02:41:07.120Z,100068.31
2023-05-08T02:43:36.125Z,100064.81
2023-05-08T02:46:11.834Z,100068.50
2023-05-08T02:48:48.249Z,100067.53
2023-05-08T02:51:25.265Z,100061.53
2023-05-08T02:53:59.908Z,100068.28
2023-05-08T02:56:37.603Z,100076.28
2023-05-08T02:59:16.760Z,100079.00
2023-05-08T03:01:52.010Z,100078.72
2023-05-08T03:04:30.984Z,100075.50
2023-05-08T03:07:02.316Z,100076.34
2023-05-08T03:09:43.620Z,100075.69
2023-05-08T03:12:16.586Z,100072.16
2023-05-08T03:14:48.528Z,100078.53
2023-05-08T03:17:18.432Z,100080.84
2023-05-08T03:19:52.022Z,100076.41
2023-05-08T03:22:24.404Z,100078.22
2023-05-08T03:24:54.958Z,100081.63
2023-05-08T03:27:25.144Z,100079.56
2023-05-08T03:29:55.000Z,100079.78
2023-05-08T03:32:28.266Z,100081.37
2023-05-08T03:34:59.982Z,100076.41
2023-05-08T03:37:30.591Z,100086.00
2023-05-08T03:39:59.498Z,100078.09
2023-05-08T03:42:28.792Z,100079.16
2023-05-08T03:44:58.888Z,100083.47
2023-05-08T03:47:28.932Z,100091.34
2023-05-08T03:49:58.655Z,100087.75
2023-05-08T03:52:27.641Z,100089.56
2023-05-08T03:54:57.625Z,100093.72
2023-05-08T03:57:29.522Z,100095.44
2023-05-08T04:00:04.356Z,100093.72
2023-05-08T04:02:47.660Z,100094.75
2023-05-08T04:05:22.619Z,100089.47
2023-05-08T04:07:54.881Z,100089.34
2023-05-08T04:10:33.452Z,100098.97
2023-05-08T04:13:06.709Z,100103.97
2023-05-08T04:15:42.306Z,100106.28
2023-05-08T04:18:16.207Z,100107.97
2023-05-08T04:20:48.470Z,100109.00
2023-05-08T04:23:21.437Z,100113.28
2023-05-08T04:25:53.572Z,100113.38
2023-05-08T04:28:23.075Z,100116.84
2023-05-08T04:30:52.901Z,100122.78
2023-05-08T04:33:22.232Z,100126.16
2023-05-08T04:35:51.493Z,100128.87
2023-05-08T04:38:20.736Z,100122.66
2023-05-08T04:40:49.592Z,100128.56
2023-05-08T04:43:19.770Z,100129.69
2023-05-08T04:45:48.817Z,100145.37
2023-05-08T04:48:19.007Z,100147.81
2023-05-08T04:50:48.016Z,100149.13
2023-05-08T04:53:16.795Z,100152.16
2023-05-08T04:55:45.407Z,100150.19
2023-05-08T04:58:14.426Z,100158.97
2023-05-08T05:00:44.599Z,100155.72
2023-05-08T05:03:13.397Z,100159.34
2023-05-08T05:05:42.494Z,100164.06
2023-05-08T05:08:11.214Z,100167.62
2023-05-08T05:10:40.092Z,100170.16
2023-05-08T05:13:09.544Z,100160.00
2023-05-08T05:15:38.301Z,100165.91
2023-05-08T05:18:08.367Z,100165.41
2023-05-08T05:20:37.709Z,100164.72
2023-05-08T05:23:06.643Z,100163.06
2023-05-08T05:25:36.084Z,100170.66
2023-05-08T05:28:05.903Z,100177.25
2023-05-08T05:30:34.896Z,100164.09
2023-05-08T05:33:03.984Z,100170.34
2023-05-08T05:35:34.698Z,100172.03
2023-05-08T05:38:03.462Z,100174.56
2023-05-08T05:40:32.185Z,100171.22
2023-05-08T05:43:01.213Z,100176.16
2023-05-08T05:45:33.785Z,100176.25
2023-05-08T05:48:03.297Z,100182.81
2023-05-08T05:50:34.788Z,100187.88
2023-05-08T05:53:03.986Z,100186.03
2023-05-08T05:55:32.728Z,100190.84
2023-05-08T05:58:01.807Z,100185.72
2023-05-08T06:00:31.362Z,100177.41
2023-05-08T06:03:02.329Z,100195.19
2023-05-08T06:05:31.751Z,100194.59
2023-05-08T06:08:02.119Z,100192.22
2023-05-08T06:10:30.963Z,100188.19
2023-05-08T06:13:00.131Z,100188.56
2023-05-08T06:15:29.116Z,100178.78
2023-05-08T06:17:58.273Z,100186.59
2023-05-08T06:20:27.442Z,100189.22
2023-05-08T06:22:56.088Z,100190.38
2023-05-08T06:25:28.177Z,100195.59
2023-05-08T06:27:57.176Z,100194.03
2023-05-08T06:30:25.883Z,100196.13
2023-05-08T06:32:54.577Z,100191.12
2023-05-08T06:35:23.939Z,100190.22
2023-05-08T06:37:52.733Z,100188.12
2023-05-08T06:40:21.666Z,100201.59
2023-05-08T06:42:51.944Z,100198.19
2023-05-08T06:45:20.813Z,100195.44
2023-05-08T06:47:49.450Z,100203.28
2023-05-08T06:50:20.103Z,100202.84
2023-05-08T06:52:48.750Z,100196.44
2023-05-08T06:55:17.438Z,100201.00
2023-05-08T06:57:46.389Z,100216.63
2023-05-08T07:00:17.008Z,100209.41
2023-05-08T07:02:45.930Z,100211.25
2023-05-08T07:05:15.247Z,100211.25
2023-05-08T07:07:44.132Z,100208.66
2023-05-08T07:10:13.137Z,100203.84
2023-05-08T07:12:42.133Z,100203.72
2023-05-08T07:15:24.789Z,100214.41
2023-05-08T07:17:56.812Z,100215.94
2023-05-08T07:20:25.757Z,100219.91
2023-05-08T07:22:54.474Z,100211.75
2023-05-08T07:25:26.228Z,100219.53
2023-05-08T07:27:55.014Z,100211.81
2023-05-08T07:30:24.149Z,100216.44
2023-05-08T07:32:52.965Z,100209.66
2023-05-08T07:35:23.115Z,100215.44
2023-05-08T07:37:52.040Z,100212.09
2023-05-08T07:40:20.799Z,100221.31
2023-05-08T07:42:49.499Z,100215.88
2023-05-08T07:45:18.440Z,100214.31
2023-05-08T07:47:51.411Z,100216.34
2023-05-08T07:50:20.485Z,100215.84
2023-05-08T07:52:50.902Z,100216.81
2023-05-08T07:55:20.662Z,100207.91
2023-05-08T07:57:49.476Z,100219.25
2023-05-08T08:00:18.911Z,100214.19
2023-05-08T08:02:48.038Z,100209.53
2023-05-08T08:05:17.085Z,100218.94
2023-05-08T08:07:45.960Z,100214.97
2023-05-08T08:10:16.299Z,100221.78
2023-05-08T08:12:45.645Z,100209.22
2023-05-08T08:15:14.431Z,100219.28
2023-05-08T08:17:43.460Z,100208.28
2023-05-08T08:20:13.107Z,100208.78
2023-05-08T08:22:41.797Z,100214.44
2023-05-08T08:25:11.185Z,100212.66
2023-05-08T08:27:41.506Z,100215.41
2023-05-08T08:30:17.466Z,100209.94
2023-05-08T08:32:47.479Z,100214.44
2023-05-08T08:35:16.894Z,100213.09
2023-05-08T08:37:45.922Z,100210.75
2023-05-08T08:40:14.868Z,100203.13
2023-05-08T08:42:45.160Z,100209.56
2023-05-08T08:45:14.253Z,100207.81
2023-05-08T08:47:46.295Z,100205.50
2023-05-08T08:50:16.347Z,100199.84
2023-05-08T08:52:49.976Z,100208.25
2023-05-08T08:55:19.561Z,100207.22
2023-05-08T08:57:56.393Z,100205.09
2023-05-08T09:00:29.660Z,100201.38
2023-05-08T09:02:59.041Z,100208.59
2023-05-08T09:05:27.783Z,100213.19
2023-05-08T09:07:56.990Z,100211.59
2023-05-08T09:10:26.177Z,100211.00
2023-05-08T09:12:56.332Z,100203.09
2023-05-08T09:15:25.148Z,100207.84
2023-05-08T09:17:54.127Z,100206.50
2023-05-08T09:20:22.825Z,100199.38
2023-05-08T09:22:52.615Z,100210.59
2023-05-08T09:25:21.832Z,100206.31
2023-05-08T09:27:50.807Z,100195.69
2023-05-08T09:30:20.836Z,100201.38
2023-05-08T09:32:50.034Z,100196.84
2023-05-08T09:35:18.790Z,100205.16
2023-05-08T09:37:47.630Z,100207.41
2023-05-08T09:40:18.264Z,100201.56
2023-05-08T09:42:48.513Z,100202.81
2023-05-08T09:45:29.373Z,100197.56
2023-05-08T09:47:58.319Z,100205.63
2023-05-08T09:50:27.844Z,100197.31
2023-05-08T09:53:00.544Z,100196.16
2023-05-08T09:55:29.595Z,100187.66
2023-05-08T09:57:59.438Z,100185.34
2023-05-08T10:00:30.312Z,100184.31
2023-05-08T10:03:00.611Z,100178.97
2023-05-08T10:05:31.794Z,100186.59
2023-05-08T10:08:19.363Z,100177.38
2023-05-08T10:10:48.124Z,100179.28
2023-05-08T10:13:17.120Z,100179.87
2023-05-08T10:15:49.444Z,100183.34
2023-05-08T10:18:19.052Z,100176.66
2023-05-08T10:20:49.544Z,100175.03
2023-05-08T10:23:19.245Z,100172.03
2023-05-08T10:25:49.670Z,100158.66
2023-05-08T10:28:25.370Z,100170.50
2023-05-08T10:30:57.534Z,100164.06
2023-05-08T10:33:32.094Z,100161.91
2023-05-08T10:36:01.420Z,100152.91
2023-05-08T10:38:32.110Z,100154.59
2023-05-08T10:41:01.600Z,100156.56
2023-05-08T10:43:31.344Z,100148.53
2023-05-08T10:46:05.956Z,100152.06
2023-05-08T10:48:43.596Z,100144.88
2023-05-08T10:51:16.295Z,100145.34
2023-05-08T10:53:49.327Z,100155.22
2023-05-08T10:56:18.041Z,100149.44
2023-05-08T10:58:46.897Z,100143.59
2023-05-08T11:01:17.919Z,100147.56
2023-05-08T11:03:50.584Z,100147.16
2023-05-08T11:06:40.548Z,100139.38
2023-05-08T11:09:16.240Z,100136.50
2023-05-08T11:11:53.987Z,100133.22
2023-05-08T11:14:24.009Z,100135.22
2023-05-08T11:17:08.409Z,100120.69
2023-05-08T11:19:38.436Z,100124.06
2023-05-08T11:22:18.225Z,100130.69
2023-05-08T11:24:53.577Z,100127.91
2023-05-08T11:28:04.533Z,100119.56
2023-05-08T11:30:40.095Z,100119.56
2023-05-08T11:33:17.400Z,100119.91
2023-05-08T11:35:57.305Z,100130.03
2023-05-08T11:38:28.341Z,100126.19
2023-05-08T11:41:03.637Z,100127.31
2023-05-08T11:43:54.174Z,100119.41
2023-05-08T11:46:23.227Z,100125.47
2023-05-08T11:48:59.930Z,100127.03
2023-05-08T11:51:34.803Z,100116.88
2023-05-08T11:54:03.835Z,100119.06
2023-05-08T11:56:32.848Z,100120.28
2023-05-08T11:59:05.529Z,100116.47
2023-05-08T12:01:34.398Z,100113.62
2023-05-08T12:04:06.381Z,100118.56
2023-05-08T12:06:37.711Z,100117.75
2023-05-08T12:09:12.276Z,100116.72
2023-05-08T12:11:43.804Z,100125.28
2023-05-08T12:14:15.055Z,100121.63
2023-05-08T12:16:43.752Z,100115.81
2023-05-08T12:19:14.749Z,100108.78
2023-05-08T12:21:47.844Z,100116.75
2023-05-08T12:24:22.740Z,100116.34
2023-05-08T12:26:55.381Z,100112.53
2023-05-08T12:29:25.140Z,100109.53
2023-05-08T12:31:54.393Z,100106.94
2023-05-08T12:34:25.038Z,100113.25
2023-05-08T12:37:03.498Z,100115.84
2023-05-08T12:39:37.489Z,100110.03
2023-05-08T12:42:06.797Z,100120.97
2023-05-08T12:44:35.495Z,100113.91
2023-05-08T12:47:06.256Z,100114.50
2023-05-08T12:49:38.997Z,100118.97
2023-05-08T12:52:11.787Z,100125.09
2023-05-08T12:54:42.240Z,100105.97
2023-05-08T12:57:12.148Z,100118.06
2023-05-08T12:59:41.951Z,100107.47
2023-05-08T13:02:15.246Z,100106.91
2023-05-08T13:04:45.917Z,100115.97
2023-05-08T13:07:14.942Z,100117.44
2023-05-08T13:09:57.478Z,100109.84
2023-05-08T13:12:26.245Z,100112.66
2023-05-08T13:14:55.288Z,100113.66
2023-05-08T13:17:24.004Z,100104.00
2023-05-08T13:19:54.138Z,100099.34
2023-05-08T13:22:23.239Z,100111.97
2023-05-08T13:24:51.874Z,100107.34
2023-05-08T13:27:20.599Z,100104.87
2023-05-08T13:29:49.493Z,100103.28
2023-05-08T13:32:18.135Z,100106.88
2023-05-08T13:34:50.169Z,100104.22
2023-05-08T13:37:21.323Z,100109.94
2023-05-08T13:39:49.935Z,100099.09
2023-05-08T13:42:18.618Z,100095.84
2023-05-08T13:44:47.459Z,100104.28
2023-05-08T13:47:16.049Z,100110.91
2023-05-08T13:49:46.984Z,100109.78
2023-05-08T13:52:15.963Z,100100.97
2023-05-08T13:54:46.018Z,100111.59
2023-05-08T13:57:14.706Z,100104.84
2023-05-08T13:59:43.620Z,100106.88
2023-05-08T14:02:12.531Z,100104.66
2023-05-08T14:04:41.757Z,100107.31
2023-05-08T14:07:10.711Z,100104.25
2023-05-08T14:09:47.047Z,100110.28
2023-05-08T14:12:16.437Z,100107.84
2023-05-08T14:14:45.080Z,100114.63
2023-05-08T14:17:14.029Z,100111.91
2023-05-08T14:19:42.966Z,100108.53
2023-05-08T14:22:11.648Z,100104.94
2023-05-08T14:24:40.461Z,100117.84
2023-05-08T14:27:10.860Z,100117.19
2023-05-08T14:29:42.508Z,100117.84
2023-05-08T14:32:11.623Z,100121.38
2023-05-08T14:34:40.255Z,100129.03
2023-05-08T14:37:08.927Z,100122.25
2023-05-08T14:39:38.549Z,100124.22
2023-05-08T14:42:22.251Z,100131.53
2023-05-08T14:44:55.887Z,100122.16
2023-05-08T14:47:24.702Z,100126.56
2023-05-08T14:49:54.485Z,100131.03
2023-05-08T14:52:23.102Z,100122.50
2023-05-08T14:54:53.627Z,100122.00
2023-05-08T14:57:22.776Z,100117.91
2023-05-08T14:59:55.338Z,100118.59
2023-05-08T15:02:24.596Z,100120.84
2023-05-08T15:04:53.327Z,100120.91
2023-05-08T15:07:21.943Z,100128.81
2023-05-08T15:09:50.852Z,100124.63
2023-05-08T15:12:19.490Z,100131.97
2023-05-08T15:14:48.130Z,100133.91
2023-05-08T15:17:18.603Z,100134.06
2023-05-08T15:19:47.304Z,100132.88
2023-05-08T15:22:16.054Z,100131.09
2023-05-08T15:24:45.174Z,100125.19
2023-05-08T15:27:14.203Z,100124.94
2023-05-08T15:29:42.816Z,100124.47
2023-05-08T15:32:11.711Z,100123.41
2023-05-08T15:34:41.735Z,100124.38
2023-05-08T15:37:10.358Z,100115.88
2023-05-08T15:39:39.638Z,100129.06
2023-05-08T15:42:08.333Z,100122.00
2023-05-08T15:44:54.023Z,100123.59
2023-05-08T15:47:23.975Z,100119.88
2023-05-08T15:49:54.019Z,100123.69
2023-05-08T15:52:23.585Z,100113.16
2023-05-08T15:54:52.232Z,100119.09
2023-05-08T15:57:20.870Z,100109.25
2023-05-08T15:59:49.851Z,100120.22
2023-05-08T16:02:18.523Z,100118.91
2023-05-08T16:04:47.530Z,100113.53
2023-05-08T16:07:17.456Z,100115.06
2023-05-08T16:09:49.932Z,100116.06
2023-05-08T16:12:19.786Z,100109.16
2023-05-08T16:14:48.477Z,100110.50
2023-05-08T16:17:17.679Z,100107.44
2023-05-08T16:19:46.539Z,100112.59
2023-05-08T16:22:15.119Z,100114.34
2023-05-08T16:24:45.045Z,100119.63
2023-05-08T16:27:13.963Z,100117.25
2023-05-08T16:29:42.985Z,100122.47
2023-05-08T16:32:11.892Z,100119.81
2023-05-08T16:34:40.774Z,100117.63
2023-05-08T16:37:09.646Z,100126.31
2023-05-08T16:39:38.400Z,100119.34
2023-05-08T16:42:08.912Z,100125.22
2023-05-08T16:44:37.622Z,100134.88
2023-05-08T16:47:06.464Z,100137.44
2023-05-08T16:49:35.494Z,100146.59
2023-05-08T16:52:04.231Z,100146.97
2023-05-08T16:54:34.919Z,100153.72
2023-05-08T16:57:03.908Z,100150.19
2023-05-08T16:59:33.938Z,100151.59
2023-05-08T17:02:02.601Z,100158.81
2023-05-08T17:04:31.695Z,100167.13
2023-05-08T17:07:00.570Z,100170.28
2023-05-08T17:09:29.732Z,100175.28
2023-05-08T17:11:59.060Z,100176.94
2023-05-08T17:14:27.805Z,100179.47
2023-05-08T17:16:57.756Z,100183.34
2023-05-08T17:19:26.682Z,100189.66
2023-05-08T17:21:56.456Z,100192.38
2023-05-08T17:24:26.199Z,100191.72
2023-05-08T17:26:54.944Z,100209.13
2023-05-08T17:29:23.577Z,100209.16
2023-05-08T17:31:52.545Z,100209.50
2023-05-08T17:34:23.198Z,100219.22
2023-05-08T17:36:54.517Z,100217.84
2023-05-08T17:39:23.978Z,100222.91
2023-05-08T17:41:53.260Z,100229.94
2023-05-08T17:44:21.949Z,100234.63
2023-05-08T17:46:50.651Z,100248.72
2023-05-08T17:49:19.690Z,100243.75
2023-05-08T17:51:49.692Z,100254.47
2023-05-08T17:54:18.337Z,100253.81
2023-05-08T17:56:48.612Z,100262.34
2023-05-08T17:59:17.160Z,100268.88
2023-05-08T18:01:45.924Z,100268.94
2023-05-08T18:04:14.872Z,100270.16
2023-05-08T18:06:47.404Z,100268.25
2023-05-08T18:09:17.884Z,100276.56
2023-05-08T18:11:46.886Z,100276.81
2023-05-08T18:14:15.696Z,100280.63
2023-05-08T18:16:44.611Z,100288.97
2023-05-08T18:19:13.208Z,100299.53
2023-05-08T18:21:41.905Z,100299.03
2023-05-08T18:24:13.177Z,100306.94
2023-05-08T18:26:43.140Z,100321.38
2023-05-08T18:29:12.547Z,100319.75
2023-05-08T18:31:41.181Z,100319.84
2023-05-08T18:34:09.860Z,100331.59
2023-05-08T18:36:39.597Z,100337.81
2023-05-08T18:39:08.212Z,100344.75
2023-05-08T18:41:37.629Z,100343.31
2023-05-08T18:44:10.389Z,100347.88
2023-05-08T18:46:39.097Z,100345.13
2023-05-08T18:49:08.199Z,100355.37
2023-05-08T18:51:37.327Z,100363.81
2023-05-08T18:54:06.119Z,100357.97
2023-05-08T18:56:35.549Z,100365.13
2023-05-08T18:59:04.617Z,100354.56
2023-05-08T19:01:35.158Z,100364.81
2023-05-08T19:04:04.598Z,100364.09
2023-05-08T19:06:33.487Z,100375.25
2023-05-08T19:09:02.032Z,100369.91
2023-05-08T19:11:31.082Z,100374.75
2023-05-08T19:13:59.461Z,100380.09
2023-05-08T19:16:28.053Z,100385.72
2023-05-08T19:18:58.815Z,100392.81
2023-05-08T19:21:27.453Z,100390.78
2023-05-08T19:23:55.784Z,100390.88
2023-05-08T19:26:24.919Z,100381.53
2023-05-08T19:28:53.572Z,100386.09
2023-05-08T19:31:22.300Z,100386.03
2023-05-08T19:33:50.963Z,100392.75
2023-05-08T19:36:20.910Z,100392.09
2023-05-08T19:38:49.937Z,100392.75
2023-05-08T19:41:18.714Z,100403.03
2023-05-08T19:43:47.142Z,100404.16
2023-05-08T19:46:18.067Z,100411.00
2023-05-08T19:48:46.897Z,100404.16
2023-05-08T19:51:16.321Z,100405.75
2023-05-08T19:53:50.290Z,100404.94
2023-05-08T19:56:19.009Z,100407.16
2023-05-08T19:58:48.484Z,100408.41
2023-05-08T20:01:16.993Z,100404.59
2023-05-08T20:03:45.616Z,100401.50
2023-05-08T20:06:14.095Z,100416.16
2023-05-08T20:08:42.464Z,100412.41
2023-05-08T20:11:12.685Z,100412.59
2023-05-08T20:13:41.108Z,100415.78
2023-05-08T20:16:09.698Z,100404.44
2023-05-08T20:18:38.368Z,100410.75
2023-05-08T20:21:06.756Z,100408.28
2023-05-08T20:23:35.057Z,100401.84
2023-05-08T20:26:05.265Z,100410.44
2023-05-08T20:28:35.019Z,100402.47
2023-05-08T20:31:03.765Z,100405.88
2023-05-08T20:33:32.060Z,100409.69
2023-05-08T20:36:00.552Z,100407.22
2023-05-08T20:38:29.186Z,100396.56
2023-05-08T20:41:00.793Z,100407.78
2023-05-08T20:43:29.894Z,100400.22
2023-05-08T20:45:59.572Z,100402.13
2023-05-08T20:48:27.989Z,100396.09
2023-05-08T20:50:56.780Z,100399.41
2023-05-08T20:53:25.153Z,100402.00
2023-05-08T20:56:10.982Z,100402.53
2023-05-08T20:58:39.616Z,100405.56
2023-05-08T21:01:11.164Z,100412.59
2023-05-08T21:03:40.457Z,100407.09
2023-05-08T21:06:08.846Z,100403.22
2023-05-08T21:08:37.167Z,100408.00
2023-05-08T21:11:07.074Z,100402.81
2023-05-08T21:13:35.633Z,100402.22
2023-05-08T21:16:04.355Z,100396.84
2023-05-08T21:18:34.391Z,100399.69
2023-05-08T21:21:02.739Z,100401.31
2023-05-08T21:23:31.091Z,100397.03
2023-05-08T21:26:02.168Z,100396.31
2023-05-08T21:28:30.440Z,100388.41
2023-05-08T21:30:58.766Z,100390.38
2023-05-08T21:33:27.408Z,100384.94
2023-05-08T21:35:57.055Z,100390.38
2023-05-08T21:38:25.466Z,100394.62
2023-05-08T21:40:56.174Z,100392.00
2023-05-08T21:43:24.545Z,100389.34
2023-05-08T21:45:52.918Z,100387.66
2023-05-08T21:48:23.029Z,100389.56
2023-05-08T21:50:51.506Z,100384.22
2023-05-08T21:53:21.233Z,100385.03
2023-05-08T21:55:50.527Z,100389.44
2023-05-08T21:58:18.789Z,100386.88
2023-05-08T22:00:47.108Z,100386.63
2023-05-08T22:03:15.981Z,100385.84
2023-05-08T22:05:44.365Z,100383.97
2023-05-08T22:08:12.684Z,100385.72
2023-05-08T22:10:44.141Z,100389.34
2023-05-08T22:13:13.162Z,100383.34
2023-05-08T22:15:41.772Z,100376.53
2023-05-08T22:18:10.189Z,100381.59
2023-05-08T22:20:38.587Z,100375.47
2023-05-08T22:23:07.226Z,100379.78
2023-05-08T22:25:35.585Z,100380.50
2023-05-08T22:28:05.511Z,100382.53
2023-05-08T22:30:34.095Z,100372.09
2023-05-08T22:33:02.535Z,100372.13
2023-05-08T22:35:30.884Z,100365.94
2023-05-08T22:37:59.734Z,100363.50
2023-05-08T22:40:28.079Z,100365.75
2023-05-08T22:42:58.763Z,100369.69
2023-05-08T22:45:28.826Z,100369.16
2023-05-08T22:47:57.255Z,100367.84
2023-05-08T22:50:25.604Z,100368.41
2023-05-08T22:52:54.194Z,100373.50
2023-05-08T22:55:24.669Z,100374.38
2023-05-08T22:57:53.005Z,100376.22
2023-05-08T23:00:21.892Z,100377.09
2023-05-08T23:02:51.674Z,100375.09
2023-05-08T23:05:20.111Z,100373.63
2023-05-08T23:07:48.660Z,100377.31
2023-05-08T23:10:17.054Z,100379.44
2023-05-08T23:12:45.436Z,100380.69
2023-05-08T23:15:14.485Z,100379.03
2023-05-08T23:17:43.032Z,100379.16
2023-05-08T23:20:13.348Z,100387.62
2023-05-08T23:22:41.898Z,100380.53
2023-05-08T23:25:10.643Z,100384.16
2023-05-08T23:27:39.100Z,100385.03
2023-05-08T23:30:08.333Z,100376.41
2023-05-08T23:32:36.718Z,100374.59
2023-05-08T23:35:05.396Z,100365.38
2023-05-08T23:37:35.494Z,100368.56
2023-05-08T23:40:03.868Z,100371.34
2023-05-08T23:42:32.240Z,100371.75
2023-05-08T23:45:00.830Z,100371.81
2023-05-08T23:47:29.167Z,100364.38
2023-05-08T23:49:57.456Z,100358.87
2023-05-08T23:52:26.380Z,100359.75
2023-05-08T23:54:56.222Z,100362.41
2023-05-08T23:57:24.560Z,100358.03
2023-05-08T23:59:53.143Z,100358.59
